Terminal Aerodrome Forecast
Issued by NWS Sioux Falls, SD

Home | Current Version | Previous Version | Text Only | Print | Product List | Glossary Off
Versions: 1 2 3 4 5 6 7 8 9 10 11 12 13 14

000
FTUS43 KFSD 190520
TAFSUX
TAF
KSUX 190520Z 1906/2006 13006KT 5SM BR SCT004 SCT035
     FM190800 13006KT 4SM BR BKN007
     FM191000 13009KT 3SM BR BKN005
     FM191500 15012G18KT P6SM BKN008
     FM191700 15012G22KT P6SM BKN120=

USA.gov is the U.S. government's official web portal to all federal, state and local government web resources and services.